ADDS METAR Data INFO
IDs: Format: Raw Decoded Include TAF

Data at: 2112 UTC 22 Oct 2017

KHRL 222052Z 08015KT 10SM FEW033 SCT075 SCT085 31/25 A2997 RMK AO2 SLP147 T03110250 56015